sensor_id;sensor_type;location;lat;lon;timestamp;P1;durP1;ratioP1;P2;durP2;ratioP2
34541;SDS011;20784;51.332;12.410;2023-08-06T00:00:05;5.38;;;4.13;;
34541;SDS011;20784;51.332;12.410;2023-08-06T00:02:32;5.78;;;3.55;;
34541;SDS011;20784;51.332;12.410;2023-08-06T00:04:59;4.95;;;3.58;;
34541;SDS011;20784;51.332;12.410;2023-08-06T00:07:25;6.07;;;3.40;;
34541;SDS011;20784;51.332;12.410;2023-08-06T00:09:50;6.63;;;4.22;;
34541;SDS011;20784;51.332;12.410;2023-08-06T00:12:16;6.32;;;4.00;;
34541;SDS011;20784;51.332;12.410;2023-08-06T00:14:42;7.25;;;3.78;;
34541;SDS011;20784;51.332;12.410;2023-08-06T00:17:07;5.90;;;3.60;;
34541;SDS011;20784;51.332;12.410;2023-08-06T00:19:33;4.85;;;3.90;;
34541;SDS011;20784;51.332;12.410;2023-08-06T00:21:59;7.22;;;4.03;;
34541;SDS011;20784;51.332;12.410;2023-08-06T00:24:24;7.18;;;3.97;;
34541;SDS011;20784;51.332;12.410;2023-08-06T00:26:50;4.70;;;3.92;;
34541;SDS011;20784;51.332;12.410;2023-08-06T00:29:16;6.03;;;4.00;;
34541;SDS011;20784;51.332;12.410;2023-08-06T00:31:41;5.03;;;3.63;;
34541;SDS011;20784;51.332;12.410;2023-08-06T00:34:07;5.30;;;3.92;;
34541;SDS011;20784;51.332;12.410;2023-08-06T00:36:32;7.07;;;4.10;;
34541;SDS011;20784;51.332;12.410;2023-08-06T00:39:01;7.93;;;4.25;;
34541;SDS011;20784;51.332;12.410;2023-08-06T00:41:27;7.10;;;4.15;;
34541;SDS011;20784;51.332;12.410;2023-08-06T00:43:53;4.55;;;3.38;;
34541;SDS011;20784;51.332;12.410;2023-08-06T00:46:21;7.43;;;3.65;;
34541;SDS011;20784;51.332;12.410;2023-08-06T00:48:46;5.60;;;4.28;;
34541;SDS011;20784;51.332;12.410;2023-08-06T00:51:12;6.30;;;3.80;;
34541;SDS011;20784;51.332;12.410;2023-08-06T00:53:39;8.30;;;4.03;;
34541;SDS011;20784;51.332;12.410;2023-08-06T00:56:05;4.05;;;3.40;;
34541;SDS011;20784;51.332;12.410;2023-08-06T00:58:32;6.35;;;4.10;;
34541;SDS011;20784;51.332;12.410;2023-08-06T01:00:58;5.40;;;4.03;;
34541;SDS011;20784;51.332;12.410;2023-08-06T01:03:24;6.32;;;4.50;;
34541;SDS011;20784;51.332;12.410;2023-08-06T01:05:50;5.90;;;3.80;;
34541;SDS011;20784;51.332;12.410;2023-08-06T01:13:54;6.47;;;4.38;;
34541;SDS011;20784;51.332;12.410;2023-08-06T01:16:46;5.93;;;4.28;;
34541;SDS011;20784;51.332;12.410;2023-08-06T01:19:16;5.82;;;4.47;;
34541;SDS011;20784;51.332;12.410;2023-08-06T01:21:42;5.38;;;3.97;;
34541;SDS011;20784;51.332;12.410;2023-08-06T01:24:11;6.90;;;3.63;;
34541;SDS011;20784;51.332;12.410;2023-08-06T01:26:39;4.32;;;3.80;;
34541;SDS011;20784;51.332;12.410;2023-08-06T01:31:48;6.47;;;3.92;;
34541;SDS011;20784;51.332;12.410;2023-08-06T01:34:17;5.82;;;4.00;;
34541;SDS011;20784;51.332;12.410;2023-08-06T01:36:48;9.07;;;4.45;;
34541;SDS011;20784;51.332;12.410;2023-08-06T01:39:17;6.28;;;4.35;;
34541;SDS011;20784;51.332;12.410;2023-08-06T01:41:46;7.32;;;4.07;;
34541;SDS011;20784;51.332;12.410;2023-08-06T01:44:12;5.47;;;3.72;;
34541;SDS011;20784;51.332;12.410;2023-08-06T01:46:38;7.07;;;4.70;;
34541;SDS011;20784;51.332;12.410;2023-08-06T01:49:04;5.47;;;4.05;;
34541;SDS011;20784;51.332;12.410;2023-08-06T01:51:29;5.38;;;3.75;;
34541;SDS011;20784;51.332;12.410;2023-08-06T01:53:55;6.40;;;4.38;;
34541;SDS011;20784;51.332;12.410;2023-08-06T01:56:21;6.50;;;3.97;;
34541;SDS011;20784;51.332;12.410;2023-08-06T01:58:46;5.03;;;3.83;;
34541;SDS011;20784;51.332;12.410;2023-08-06T02:01:12;3.95;;;3.55;;
34541;SDS011;20784;51.332;12.410;2023-08-06T02:03:37;6.38;;;4.25;;
34541;SDS011;20784;51.332;12.410;2023-08-06T02:06:03;6.28;;;4.40;;
34541;SDS011;20784;51.332;12.410;2023-08-06T02:08:28;6.60;;;4.20;;
34541;SDS011;20784;51.332;12.410;2023-08-06T02:10:54;7.70;;;4.13;;
34541;SDS011;20784;51.332;12.410;2023-08-06T02:13:20;6.47;;;4.15;;
34541;SDS011;20784;51.332;12.410;2023-08-06T02:15:46;4.43;;;3.83;;
34541;SDS011;20784;51.332;12.410;2023-08-06T02:18:14;5.55;;;4.07;;
34541;SDS011;20784;51.332;12.410;2023-08-06T02:20:41;8.80;;;5.30;;
34541;SDS011;20784;51.332;12.410;2023-08-06T02:23:07;11.20;;;4.40;;
34541;SDS011;20784;51.332;12.410;2023-08-06T02:25:32;5.63;;;4.30;;
34541;SDS011;20784;51.332;12.410;2023-08-06T02:28:00;6.55;;;4.25;;
34541;SDS011;20784;51.332;12.410;2023-08-06T02:30:26;6.18;;;4.60;;
34541;SDS011;20784;51.332;12.410;2023-08-06T02:32:52;6.00;;;4.50;;
34541;SDS011;20784;51.332;12.410;2023-08-06T02:35:17;6.40;;;4.22;;
34541;SDS011;20784;51.332;12.410;2023-08-06T02:37:43;6.95;;;4.20;;
34541;SDS011;20784;51.332;12.410;2023-08-06T02:40:09;6.50;;;4.13;;
34541;SDS011;20784;51.332;12.410;2023-08-06T02:42:35;5.18;;;4.20;;
34541;SDS011;20784;51.332;12.410;2023-08-06T02:45:00;7.85;;;4.05;;
34541;SDS011;20784;51.332;12.410;2023-08-06T02:47:26;7.28;;;4.18;;
34541;SDS011;20784;51.332;12.410;2023-08-06T02:49:54;6.15;;;3.63;;
34541;SDS011;20784;51.332;12.410;2023-08-06T02:52:29;9.43;;;4.65;;
34541;SDS011;20784;51.332;12.410;2023-08-06T02:54:54;5.50;;;4.00;;
34541;SDS011;20784;51.332;12.410;2023-08-06T02:57:20;6.47;;;4.75;;
34541;SDS011;20784;51.332;12.410;2023-08-06T02:59:46;5.40;;;3.97;;
34541;SDS011;20784;51.332;12.410;2023-08-06T03:02:11;6.75;;;4.93;;
34541;SDS011;20784;51.332;12.410;2023-08-06T03:04:37;7.75;;;4.88;;
34541;SDS011;20784;51.332;12.410;2023-08-06T03:07:03;7.28;;;4.80;;
34541;SDS011;20784;51.332;12.410;2023-08-06T03:09:28;5.95;;;4.65;;
34541;SDS011;20784;51.332;12.410;2023-08-06T03:11:54;8.25;;;4.78;;
34541;SDS011;20784;51.332;12.410;2023-08-06T03:14:20;7.10;;;4.30;;
34541;SDS011;20784;51.332;12.410;2023-08-06T03:16:45;6.95;;;4.35;;
34541;SDS011;20784;51.332;12.410;2023-08-06T03:19:11;7.22;;;4.63;;
34541;SDS011;20784;51.332;12.410;2023-08-06T03:21:36;5.95;;;4.00;;
34541;SDS011;20784;51.332;12.410;2023-08-06T03:24:05;7.20;;;4.78;;
34541;SDS011;20784;51.332;12.410;2023-08-06T03:26:31;7.57;;;4.55;;
34541;SDS011;20784;51.332;12.410;2023-08-06T03:28:56;5.85;;;4.72;;
34541;SDS011;20784;51.332;12.410;2023-08-06T03:31:24;7.07;;;4.72;;
34541;SDS011;20784;51.332;12.410;2023-08-06T03:33:50;5.35;;;4.60;;
34541;SDS011;20784;51.332;12.410;2023-08-06T03:36:15;7.55;;;5.22;;
34541;SDS011;20784;51.332;12.410;2023-08-06T03:38:44;10.27;;;5.18;;
34541;SDS011;20784;51.332;12.410;2023-08-06T03:43:38;5.40;;;4.40;;
34541;SDS011;20784;51.332;12.410;2023-08-06T03:46:04;8.63;;;4.97;;
34541;SDS011;20784;51.332;12.410;2023-08-06T03:48:29;5.25;;;4.75;;
34541;SDS011;20784;51.332;12.410;2023-08-06T03:51:06;9.13;;;4.72;;
34541;SDS011;20784;51.332;12.410;2023-08-06T03:53:32;5.82;;;4.65;;
34541;SDS011;20784;51.332;12.410;2023-08-06T03:55:58;4.88;;;4.15;;
34541;SDS011;20784;51.332;12.410;2023-08-06T03:58:25;6.50;;;5.30;;
34541;SDS011;20784;51.332;12.410;2023-08-06T04:01:00;5.95;;;4.95;;
34541;SDS011;20784;51.332;12.410;2023-08-06T04:03:27;5.95;;;4.93;;
34541;SDS011;20784;51.332;12.410;2023-08-06T04:05:52;5.43;;;4.55;;
34541;SDS011;20784;51.332;12.410;2023-08-06T04:08:18;6.95;;;5.15;;
34541;SDS011;20784;51.332;12.410;2023-08-06T04:10:44;5.57;;;5.03;;
34541;SDS011;20784;51.332;12.410;2023-08-06T04:13:09;6.43;;;5.03;;
34541;SDS011;20784;51.332;12.410;2023-08-06T04:15:36;6.50;;;5.13;;
34541;SDS011;20784;51.332;12.410;2023-08-06T04:18:02;8.43;;;5.30;;
34541;SDS011;20784;51.332;12.410;2023-08-06T04:20:27;9.43;;;5.18;;
34541;SDS011;20784;51.332;12.410;2023-08-06T04:22:54;7.18;;;5.00;;
34541;SDS011;20784;51.332;12.410;2023-08-06T04:25:20;7.93;;;5.05;;
34541;SDS011;20784;51.332;12.410;2023-08-06T04:27:46;7.57;;;5.30;;
34541;SDS011;20784;51.332;12.410;2023-08-06T04:30:12;8.52;;;5.15;;
34541;SDS011;20784;51.332;12.410;2023-08-06T04:32:38;8.20;;;5.30;;
34541;SDS011;20784;51.332;12.410;2023-08-06T04:35:04;8.13;;;5.32;;
34541;SDS011;20784;51.332;12.410;2023-08-06T04:37:30;6.97;;;4.80;;
34541;SDS011;20784;51.332;12.410;2023-08-06T04:39:56;6.20;;;5.05;;
34541;SDS011;20784;51.332;12.410;2023-08-06T04:42:21;5.50;;;4.40;;
34541;SDS011;20784;51.332;12.410;2023-08-06T04:44:47;5.57;;;4.22;;
34541;SDS011;20784;51.332;12.410;2023-08-06T04:47:15;5.28;;;4.25;;
34541;SDS011;20784;51.332;12.410;2023-08-06T04:49:40;6.22;;;3.50;;
34541;SDS011;20784;51.332;12.410;2023-08-06T04:52:06;6.20;;;3.42;;
34541;SDS011;20784;51.332;12.410;2023-08-06T04:54:32;4.30;;;3.13;;
34541;SDS011;20784;51.332;12.410;2023-08-06T04:56:57;5.50;;;3.33;;
34541;SDS011;20784;51.332;12.410;2023-08-06T04:59:23;3.00;;;2.67;;
34541;SDS011;20784;51.332;12.410;2023-08-06T05:01:49;3.70;;;2.58;;
34541;SDS011;20784;51.332;12.410;2023-08-06T05:04:14;3.42;;;2.65;;
34541;SDS011;20784;51.332;12.410;2023-08-06T05:06:40;2.85;;;2.53;;
34541;SDS011;20784;51.332;12.410;2023-08-06T05:09:08;3.85;;;3.00;;
34541;SDS011;20784;51.332;12.410;2023-08-06T05:11:34;4.22;;;2.78;;
34541;SDS011;20784;51.332;12.410;2023-08-06T05:13:59;5.88;;;3.13;;
34541;SDS011;20784;51.332;12.410;2023-08-06T05:16:28;2.97;;;2.70;;
34541;SDS011;20784;51.332;12.410;2023-08-06T05:18:53;3.13;;;2.63;;
34541;SDS011;20784;51.332;12.410;2023-08-06T05:21:22;4.05;;;2.90;;
34541;SDS011;20784;51.332;12.410;2023-08-06T05:23:47;5.05;;;2.80;;
34541;SDS011;20784;51.332;12.410;2023-08-06T05:26:16;4.65;;;3.58;;
34541;SDS011;20784;51.332;12.410;2023-08-06T05:28:43;4.32;;;3.00;;
34541;SDS011;20784;51.332;12.410;2023-08-06T05:31:09;4.00;;;2.92;;
34541;SDS011;20784;51.332;12.410;2023-08-06T05:33:35;2.83;;;2.47;;
34541;SDS011;20784;51.332;12.410;2023-08-06T05:36:01;3.75;;;2.92;;
34541;SDS011;20784;51.332;12.410;2023-08-06T05:38:26;4.68;;;2.88;;
34541;SDS011;20784;51.332;12.410;2023-08-06T05:40:54;3.30;;;3.00;;
34541;SDS011;20784;51.332;12.410;2023-08-06T05:43:21;5.25;;;2.85;;
34541;SDS011;20784;51.332;12.410;2023-08-06T05:45:48;4.25;;;3.03;;
34541;SDS011;20784;51.332;12.410;2023-08-06T05:48:15;4.80;;;2.90;;
34541;SDS011;20784;51.332;12.410;2023-08-06T05:50:41;3.35;;;2.50;;
34541;SDS011;20784;51.332;12.410;2023-08-06T05:53:07;3.70;;;2.55;;
34541;SDS011;20784;51.332;12.410;2023-08-06T05:55:32;3.22;;;2.45;;
34541;SDS011;20784;51.332;12.410;2023-08-06T05:57:58;2.85;;;2.28;;
34541;SDS011;20784;51.332;12.410;2023-08-06T06:00:28;3.45;;;2.92;;
34541;SDS011;20784;51.332;12.410;2023-08-06T06:02:54;3.10;;;2.00;;
34541;SDS011;20784;51.332;12.410;2023-08-06T06:05:19;3.33;;;2.30;;
34541;SDS011;20784;51.332;12.410;2023-08-06T06:07:45;3.35;;;2.55;;
34541;SDS011;20784;51.332;12.410;2023-08-06T06:10:10;4.80;;;2.47;;
34541;SDS011;20784;51.332;12.410;2023-08-06T06:12:38;2.60;;;2.20;;
34541;SDS011;20784;51.332;12.410;2023-08-06T06:15:04;5.10;;;2.47;;
34541;SDS011;20784;51.332;12.410;2023-08-06T06:17:30;5.35;;;2.20;;
34541;SDS011;20784;51.332;12.410;2023-08-06T06:19:56;2.58;;;2.03;;
34541;SDS011;20784;51.332;12.410;2023-08-06T06:22:21;3.45;;;2.40;;
34541;SDS011;20784;51.332;12.410;2023-08-06T06:24:50;3.80;;;2.13;;
34541;SDS011;20784;51.332;12.410;2023-08-06T06:27:16;3.08;;;2.35;;
34541;SDS011;20784;51.332;12.410;2023-08-06T06:29:41;2.17;;;1.98;;
34541;SDS011;20784;51.332;12.410;2023-08-06T06:32:07;3.42;;;2.08;;
34541;SDS011;20784;51.332;12.410;2023-08-06T06:34:32;2.00;;;1.80;;
34541;SDS011;20784;51.332;12.410;2023-08-06T06:36:58;4.72;;;2.20;;
34541;SDS011;20784;51.332;12.410;2023-08-06T06:39:23;1.70;;;1.60;;
34541;SDS011;20784;51.332;12.410;2023-08-06T06:41:49;3.83;;;1.98;;
34541;SDS011;20784;51.332;12.410;2023-08-06T06:44:14;1.88;;;1.70;;
34541;SDS011;20784;51.332;12.410;2023-08-06T06:46:40;2.42;;;1.60;;
34541;SDS011;20784;51.332;12.410;2023-08-06T06:49:06;1.65;;;1.40;;
34541;SDS011;20784;51.332;12.410;2023-08-06T06:51:31;1.95;;;1.52;;
34541;SDS011;20784;51.332;12.410;2023-08-06T06:53:57;2.00;;;1.65;;
34541;SDS011;20784;51.332;12.410;2023-08-06T06:56:23;1.92;;;1.70;;
34541;SDS011;20784;51.332;12.410;2023-08-06T06:58:48;2.38;;;1.60;;
34541;SDS011;20784;51.332;12.410;2023-08-06T07:01:14;3.30;;;1.63;;
34541;SDS011;20784;51.332;12.410;2023-08-06T07:03:39;2.70;;;1.40;;
34541;SDS011;20784;51.332;12.410;2023-08-06T07:06:06;2.38;;;1.40;;
34541;SDS011;20784;51.332;12.410;2023-08-06T07:08:31;1.75;;;1.40;;
34541;SDS011;20784;51.332;12.410;2023-08-06T07:11:06;1.92;;;1.50;;
34541;SDS011;20784;51.332;12.410;2023-08-06T07:13:32;3.22;;;1.60;;
34541;SDS011;20784;51.332;12.410;2023-08-06T07:15:58;3.42;;;1.25;;
34541;SDS011;20784;51.332;12.410;2023-08-06T07:18:24;2.03;;;1.40;;
34541;SDS011;20784;51.332;12.410;2023-08-06T07:20:50;1.45;;;1.30;;
34541;SDS011;20784;51.332;12.410;2023-08-06T07:23:19;1.80;;;1.50;;
34541;SDS011;20784;51.332;12.410;2023-08-06T07:25:49;1.92;;;1.52;;
34541;SDS011;20784;51.332;12.410;2023-08-06T07:28:14;2.05;;;1.38;;
34541;SDS011;20784;51.332;12.410;2023-08-06T07:30:41;1.73;;;1.40;;
34541;SDS011;20784;51.332;12.410;2023-08-06T07:33:07;3.88;;;1.30;;
34541;SDS011;20784;51.332;12.410;2023-08-06T07:35:35;2.88;;;1.35;;
34541;SDS011;20784;51.332;12.410;2023-08-06T07:38:01;2.75;;;1.38;;
34541;SDS011;20784;51.332;12.410;2023-08-06T07:40:27;1.98;;;1.30;;
34541;SDS011;20784;51.332;12.410;2023-08-06T07:42:54;1.67;;;1.42;;
34541;SDS011;20784;51.332;12.410;2023-08-06T07:45:19;1.48;;;1.38;;
34541;SDS011;20784;51.332;12.410;2023-08-06T07:47:45;4.38;;;1.40;;
34541;SDS011;20784;51.332;12.410;2023-08-06T07:50:11;3.97;;;1.73;;
34541;SDS011;20784;51.332;12.410;2023-08-06T07:52:37;3.25;;;1.95;;
34541;SDS011;20784;51.332;12.410;2023-08-06T07:55:03;1.70;;;1.30;;
34541;SDS011;20784;51.332;12.410;2023-08-06T07:57:32;5.32;;;1.48;;
34541;SDS011;20784;51.332;12.410;2023-08-06T07:59:59;3.08;;;1.95;;
34541;SDS011;20784;51.332;12.410;2023-08-06T08:02:25;2.58;;;1.20;;
34541;SDS011;20784;51.332;12.410;2023-08-06T08:04:55;2.10;;;1.50;;
34541;SDS011;20784;51.332;12.410;2023-08-06T08:07:21;1.80;;;1.40;;
34541;SDS011;20784;51.332;12.410;2023-08-06T08:09:47;2.38;;;1.50;;
34541;SDS011;20784;51.332;12.410;2023-08-06T08:12:15;2.47;;;1.60;;
34541;SDS011;20784;51.332;12.410;2023-08-06T08:14:41;2.25;;;1.33;;
34541;SDS011;20784;51.332;12.410;2023-08-06T08:17:06;1.85;;;1.42;;
34541;SDS011;20784;51.332;12.410;2023-08-06T08:19:32;1.58;;;1.33;;
34541;SDS011;20784;51.332;12.410;2023-08-06T08:21:57;1.75;;;1.38;;
34541;SDS011;20784;51.332;12.410;2023-08-06T08:24:23;1.73;;;1.15;;
34541;SDS011;20784;51.332;12.410;2023-08-06T08:26:50;1.38;;;1.27;;
34541;SDS011;20784;51.332;12.410;2023-08-06T08:29:16;1.58;;;1.23;;
34541;SDS011;20784;51.332;12.410;2023-08-06T08:31:41;2.33;;;1.25;;
34541;SDS011;20784;51.332;12.410;2023-08-06T08:34:08;1.88;;;1.58;;
34541;SDS011;20784;51.332;12.410;2023-08-06T08:36:34;2.28;;;1.40;;
34541;SDS011;20784;51.332;12.410;2023-08-06T08:38:59;4.18;;;1.40;;
34541;SDS011;20784;51.332;12.410;2023-08-06T08:41:27;3.35;;;1.52;;
34541;SDS011;20784;51.332;12.410;2023-08-06T08:43:54;2.53;;;1.60;;
34541;SDS011;20784;51.332;12.410;2023-08-06T08:46:21;1.80;;;1.40;;
34541;SDS011;20784;51.332;12.410;2023-08-06T08:48:47;1.92;;;1.38;;
34541;SDS011;20784;51.332;12.410;2023-08-06T08:51:17;1.52;;;1.27;;
34541;SDS011;20784;51.332;12.410;2023-08-06T08:53:44;2.10;;;1.50;;
34541;SDS011;20784;51.332;12.410;2023-08-06T08:56:12;1.50;;;1.40;;
34541;SDS011;20784;51.332;12.410;2023-08-06T08:58:39;2.75;;;1.35;;
34541;SDS011;20784;51.332;12.410;2023-08-06T09:01:05;2.20;;;1.52;;
34541;SDS011;20784;51.332;12.410;2023-08-06T09:03:32;2.30;;;1.30;;
34541;SDS011;20784;51.332;12.410;2023-08-06T09:05:59;2.88;;;1.73;;
34541;SDS011;20784;51.332;12.410;2023-08-06T09:08:27;2.85;;;1.30;;
34541;SDS011;20784;51.332;12.410;2023-08-06T09:10:59;2.65;;;1.60;;
34541;SDS011;20784;51.332;12.410;2023-08-06T09:13:26;2.38;;;1.60;;
34541;SDS011;20784;51.332;12.410;2023-08-06T09:15:52;1.90;;;1.50;;
34541;SDS011;20784;51.332;12.410;2023-08-06T09:18:25;2.10;;;1.60;;
34541;SDS011;20784;51.332;12.410;2023-08-06T09:20:52;2.05;;;1.40;;
34541;SDS011;20784;51.332;12.410;2023-08-06T09:23:18;1.70;;;1.40;;
34541;SDS011;20784;51.332;12.410;2023-08-06T09:25:45;2.03;;;1.40;;
34541;SDS011;20784;51.332;12.410;2023-08-06T09:28:10;1.83;;;1.60;;
34541;SDS011;20784;51.332;12.410;2023-08-06T09:30:36;1.92;;;1.50;;
34541;SDS011;20784;51.332;12.410;2023-08-06T09:33:03;3.00;;;1.80;;
34541;SDS011;20784;51.332;12.410;2023-08-06T09:35:33;1.25;;;1.08;;
34541;SDS011;20784;51.332;12.410;2023-08-06T09:38:05;2.35;;;1.40;;
34541;SDS011;20784;51.332;12.410;2023-08-06T09:40:35;1.48;;;1.38;;
34541;SDS011;20784;51.332;12.410;2023-08-06T09:43:02;1.40;;;1.30;;
34541;SDS011;20784;51.332;12.410;2023-08-06T09:45:32;4.70;;;1.90;;
34541;SDS011;20784;51.332;12.410;2023-08-06T09:48:06;1.80;;;1.60;;
34541;SDS011;20784;51.332;12.410;2023-08-06T09:50:33;3.42;;;2.30;;
34541;SDS011;20784;51.332;12.410;2023-08-06T09:53:06;2.42;;;1.80;;
34541;SDS011;20784;51.332;12.410;2023-08-06T09:55:33;1.77;;;1.63;;
34541;SDS011;20784;51.332;12.410;2023-08-06T09:57:59;2.15;;;1.55;;
34541;SDS011;20784;51.332;12.410;2023-08-06T10:00:26;2.58;;;1.60;;
34541;SDS011;20784;51.332;12.410;2023-08-06T10:02:53;2.75;;;1.70;;
34541;SDS011;20784;51.332;12.410;2023-08-06T10:05:24;1.42;;;1.20;;
34541;SDS011;20784;51.332;12.410;2023-08-06T10:07:52;4.72;;;1.58;;
34541;SDS011;20784;51.332;12.410;2023-08-06T10:10:18;1.45;;;1.20;;
34541;SDS011;20784;51.332;12.410;2023-08-06T10:12:48;1.60;;;1.35;;
34541;SDS011;20784;51.332;12.410;2023-08-06T10:15:17;1.92;;;1.38;;
34541;SDS011;20784;51.332;12.410;2023-08-06T10:17:49;4.50;;;1.67;;
34541;SDS011;20784;51.332;12.410;2023-08-06T10:20:17;1.60;;;1.50;;
34541;SDS011;20784;51.332;12.410;2023-08-06T10:22:44;1.80;;;1.42;;
34541;SDS011;20784;51.332;12.410;2023-08-06T10:25:10;1.50;;;1.40;;
34541;SDS011;20784;51.332;12.410;2023-08-06T10:27:52;3.75;;;1.70;;
34541;SDS011;20784;51.332;12.410;2023-08-06T10:30:22;2.72;;;1.92;;
34541;SDS011;20784;51.332;12.410;2023-08-06T10:32:56;2.28;;;1.23;;
34541;SDS011;20784;51.332;12.410;2023-08-06T10:38:02;2.20;;;1.50;;
34541;SDS011;20784;51.332;12.410;2023-08-06T10:40:35;3.72;;;1.27;;
34541;SDS011;20784;51.332;12.410;2023-08-06T10:43:02;2.95;;;1.15;;
34541;SDS011;20784;51.332;12.410;2023-08-06T10:45:29;2.33;;;1.35;;
34541;SDS011;20784;51.332;12.410;2023-08-06T10:47:58;2.22;;;1.52;;
34541;SDS011;20784;51.332;12.410;2023-08-06T10:50:24;1.80;;;1.30;;
34541;SDS011;20784;51.332;12.410;2023-08-06T10:52:50;1.60;;;1.50;;
34541;SDS011;20784;51.332;12.410;2023-08-06T10:55:23;3.03;;;1.70;;
34541;SDS011;20784;51.332;12.410;2023-08-06T10:57:50;3.00;;;1.50;;
34541;SDS011;20784;51.332;12.410;2023-08-06T11:00:16;1.60;;;1.38;;
34541;SDS011;20784;51.332;12.410;2023-08-06T11:02:41;2.90;;;1.30;;
34541;SDS011;20784;51.332;12.410;2023-08-06T11:05:08;1.60;;;1.35;;
34541;SDS011;20784;51.332;12.410;2023-08-06T11:07:35;1.70;;;1.35;;
34541;SDS011;20784;51.332;12.410;2023-08-06T11:10:02;2.22;;;1.40;;
34541;SDS011;20784;51.332;12.410;2023-08-06T11:12:28;2.08;;;1.60;;
34541;SDS011;20784;51.332;12.410;2023-08-06T11:14:54;2.83;;;1.58;;
34541;SDS011;20784;51.332;12.410;2023-08-06T11:17:20;2.03;;;1.60;;
34541;SDS011;20784;51.332;12.410;2023-08-06T11:19:46;3.83;;;1.42;;
34541;SDS011;20784;51.332;12.410;2023-08-06T11:22:12;1.98;;;1.65;;
34541;SDS011;20784;51.332;12.410;2023-08-06T11:24:39;3.80;;;2.13;;
34541;SDS011;20784;51.332;12.410;2023-08-06T11:27:14;2.50;;;1.92;;
34541;SDS011;20784;51.332;12.410;2023-08-06T11:29:41;2.33;;;1.92;;
34541;SDS011;20784;51.332;12.410;2023-08-06T11:32:08;5.05;;;1.85;;
34541;SDS011;20784;51.332;12.410;2023-08-06T11:34:34;1.73;;;1.48;;
34541;SDS011;20784;51.332;12.410;2023-08-06T11:37:00;2.22;;;1.75;;
34541;SDS011;20784;51.332;12.410;2023-08-06T11:39:30;1.77;;;1.60;;
34541;SDS011;20784;51.332;12.410;2023-08-06T11:41:57;3.17;;;2.00;;
34541;SDS011;20784;51.332;12.410;2023-08-06T11:44:25;1.55;;;1.42;;
34541;SDS011;20784;51.332;12.410;2023-08-06T11:46:57;2.78;;;1.77;;
34541;SDS011;20784;51.332;12.410;2023-08-06T11:49:42;3.47;;;1.85;;
34541;SDS011;20784;51.332;12.410;2023-08-06T11:52:16;2.78;;;1.48;;
34541;SDS011;20784;51.332;12.410;2023-08-06T11:54:51;2.13;;;1.73;;
34541;SDS011;20784;51.332;12.410;2023-08-06T11:57:40;3.08;;;1.77;;
34541;SDS011;20784;51.332;12.410;2023-08-06T12:00:10;3.53;;;1.70;;
34541;SDS011;20784;51.332;12.410;2023-08-06T12:02:40;2.10;;;1.38;;
34541;SDS011;20784;51.332;12.410;2023-08-06T12:05:11;1.50;;;1.35;;
34541;SDS011;20784;51.332;12.410;2023-08-06T12:07:38;2.05;;;1.38;;
34541;SDS011;20784;51.332;12.410;2023-08-06T12:10:06;2.35;;;1.42;;
34541;SDS011;20784;51.332;12.410;2023-08-06T12:12:33;1.70;;;1.30;;
34541;SDS011;20784;51.332;12.410;2023-08-06T12:14:59;1.60;;;1.50;;
34541;SDS011;20784;51.332;12.410;2023-08-06T12:17:25;1.95;;;1.30;;
34541;SDS011;20784;51.332;12.410;2023-08-06T12:19:51;1.60;;;1.30;;
34541;SDS011;20784;51.332;12.410;2023-08-06T12:22:17;2.50;;;1.38;;
34541;SDS011;20784;51.332;12.410;2023-08-06T12:24:43;1.85;;;1.20;;
34541;SDS011;20784;51.332;12.410;2023-08-06T12:27:11;2.53;;;1.20;;
34541;SDS011;20784;51.332;12.410;2023-08-06T12:29:40;1.35;;;1.10;;
34541;SDS011;20784;51.332;12.410;2023-08-06T12:32:07;3.35;;;1.55;;
34541;SDS011;20784;51.332;12.410;2023-08-06T12:34:33;1.42;;;1.20;;
34541;SDS011;20784;51.332;12.410;2023-08-06T12:36:59;2.67;;;1.25;;
34541;SDS011;20784;51.332;12.410;2023-08-06T12:39:24;2.50;;;1.48;;
34541;SDS011;20784;51.332;12.410;2023-08-06T12:41:53;1.92;;;1.30;;
34541;SDS011;20784;51.332;12.410;2023-08-06T12:44:19;1.23;;;1.02;;
34541;SDS011;20784;51.332;12.410;2023-08-06T12:46:44;1.20;;;1.10;;
34541;SDS011;20784;51.332;12.410;2023-08-06T12:49:13;2.35;;;1.30;;
34541;SDS011;20784;51.332;12.410;2023-08-06T12:51:38;1.92;;;1.30;;
34541;SDS011;20784;51.332;12.410;2023-08-06T12:54:04;1.45;;;1.15;;
34541;SDS011;20784;51.332;12.410;2023-08-06T12:56:29;1.58;;;1.27;;
34541;SDS011;20784;51.332;12.410;2023-08-06T12:58:55;1.40;;;1.10;;
34541;SDS011;20784;51.332;12.410;2023-08-06T13:01:23;1.50;;;1.35;;
34541;SDS011;20784;51.332;12.410;2023-08-06T13:03:49;2.08;;;1.50;;
34541;SDS011;20784;51.332;12.410;2023-08-06T13:06:17;2.15;;;1.17;;
34541;SDS011;20784;51.332;12.410;2023-08-06T13:08:43;2.03;;;1.27;;
34541;SDS011;20784;51.332;12.410;2023-08-06T13:11:09;1.67;;;1.20;;
34541;SDS011;20784;51.332;12.410;2023-08-06T13:13:34;1.63;;;1.25;;
34541;SDS011;20784;51.332;12.410;2023-08-06T13:16:00;1.73;;;1.35;;
34541;SDS011;20784;51.332;12.410;2023-08-06T13:18:25;3.88;;;1.30;;
34541;SDS011;20784;51.332;12.410;2023-08-06T13:20:54;1.98;;;1.20;;
34541;SDS011;20784;51.332;12.410;2023-08-06T13:23:20;1.40;;;1.02;;
34541;SDS011;20784;51.332;12.410;2023-08-06T13:25:49;2.55;;;1.90;;
34541;SDS011;20784;51.332;12.410;2023-08-06T13:28:14;1.50;;;1.10;;
34541;SDS011;20784;51.332;12.410;2023-08-06T13:30:40;1.17;;;1.00;;
34541;SDS011;20784;51.332;12.410;2023-08-06T13:33:09;1.98;;;1.20;;
34541;SDS011;20784;51.332;12.410;2023-08-06T13:35:35;1.27;;;1.10;;
34541;SDS011;20784;51.332;12.410;2023-08-06T13:38:00;2.10;;;1.40;;
34541;SDS011;20784;51.332;12.410;2023-08-06T13:40:29;2.15;;;1.55;;
34541;SDS011;20784;51.332;12.410;2023-08-06T13:42:59;1.80;;;1.13;;
34541;SDS011;20784;51.332;12.410;2023-08-06T13:45:25;2.28;;;1.30;;
34541;SDS011;20784;51.332;12.410;2023-08-06T13:47:51;1.48;;;1.20;;
34541;SDS011;20784;51.332;12.410;2023-08-06T13:50:16;3.25;;;1.45;;
34541;SDS011;20784;51.332;12.410;2023-08-06T13:52:42;3.47;;;1.35;;
34541;SDS011;20784;51.332;12.410;2023-08-06T13:55:08;2.88;;;1.15;;
34541;SDS011;20784;51.332;12.410;2023-08-06T13:57:34;1.80;;;1.38;;
34541;SDS011;20784;51.332;12.410;2023-08-06T14:00:00;1.73;;;1.23;;
34541;SDS011;20784;51.332;12.410;2023-08-06T14:02:26;1.27;;;1.02;;
34541;SDS011;20784;51.332;12.410;2023-08-06T14:04:52;1.92;;;1.10;;
34541;SDS011;20784;51.332;12.410;2023-08-06T14:07:18;2.15;;;1.30;;
34541;SDS011;20784;51.332;12.410;2023-08-06T14:09:43;1.20;;;1.02;;
34541;SDS011;20784;51.332;12.410;2023-08-06T14:12:09;1.60;;;1.25;;
34541;SDS011;20784;51.332;12.410;2023-08-06T14:14:35;2.28;;;1.23;;
34541;SDS011;20784;51.332;12.410;2023-08-06T14:17:00;1.13;;;1.02;;
34541;SDS011;20784;51.332;12.410;2023-08-06T14:19:26;0.77;;;0.77;;
34541;SDS011;20784;51.332;12.410;2023-08-06T14:21:52;1.40;;;1.00;;
34541;SDS011;20784;51.332;12.410;2023-08-06T14:24:18;1.67;;;1.20;;
34541;SDS011;20784;51.332;12.410;2023-08-06T14:26:44;1.40;;;1.00;;
34541;SDS011;20784;51.332;12.410;2023-08-06T14:29:12;2.10;;;1.65;;
34541;SDS011;20784;51.332;12.410;2023-08-06T14:31:38;2.00;;;1.25;;
34541;SDS011;20784;51.332;12.410;2023-08-06T14:34:05;1.42;;;0.88;;
34541;SDS011;20784;51.332;12.410;2023-08-06T14:36:33;1.10;;;0.70;;
34541;SDS011;20784;51.332;12.410;2023-08-06T14:39:01;1.30;;;0.90;;
34541;SDS011;20784;51.332;12.410;2023-08-06T14:41:27;2.65;;;1.40;;
34541;SDS011;20784;51.332;12.410;2023-08-06T14:43:52;1.50;;;1.20;;